sensor_id;sensor_type;location;lat;lon;timestamp;temperature;humidity
75281;HTU21D;63874;47.230;39.620;2022-10-30T00:02:15;11.81;77.52
75281;HTU21D;63874;47.230;39.620;2022-10-30T00:04:41;11.82;77.43
75281;HTU21D;63874;47.230;39.620;2022-10-30T00:07:07;11.85;77.39
75281;HTU21D;63874;47.230;39.620;2022-10-30T00:09:32;11.85;77.33
75281;HTU21D;63874;47.230;39.620;2022-10-30T00:11:58;11.85;77.27
75281;HTU21D;63874;47.230;39.620;2022-10-30T00:14:24;11.86;77.25
75281;HTU21D;63874;47.230;39.620;2022-10-30T00:16:50;11.85;77.21
75281;HTU21D;63874;47.230;39.620;2022-10-30T00:19:16;11.87;77.12
75281;HTU21D;63874;47.230;39.620;2022-10-30T00:21:43;11.85;77.24
75281;HTU21D;63874;47.230;39.620;2022-10-30T00:24:09;11.84;77.28
75281;HTU21D;63874;47.230;39.620;2022-10-30T00:26:35;11.84;77.24
75281;HTU21D;63874;47.230;39.620;2022-10-30T00:29:01;11.85;77.19
75281;HTU21D;63874;47.230;39.620;2022-10-30T00:31:27;11.85;77.24
75281;HTU21D;63874;47.230;39.620;2022-10-30T00:33:54;11.85;77.26
75281;HTU21D;63874;47.230;39.620;2022-10-30T00:36:21;11.84;77.27
75281;HTU21D;63874;47.230;39.620;2022-10-30T00:38:47;11.82;77.33
75281;HTU21D;63874;47.230;39.620;2022-10-30T00:41:14;11.82;77.37
75281;HTU21D;63874;47.230;39.620;2022-10-30T00:43:41;11.79;77.37
75281;HTU21D;63874;47.230;39.620;2022-10-30T00:46:27;11.78;77.47
75281;HTU21D;63874;47.230;39.620;2022-10-30T00:49:05;11.77;77.52
75281;HTU21D;63874;47.230;39.620;2022-10-30T00:51:33;11.77;77.44
75281;HTU21D;63874;47.230;39.620;2022-10-30T00:54:02;11.81;77.40
75281;HTU21D;63874;47.230;39.620;2022-10-30T00:56:31;11.83;77.29
75281;HTU21D;63874;47.230;39.620;2022-10-30T00:59:08;11.85;77.22
75281;HTU21D;63874;47.230;39.620;2022-10-30T01:01:37;11.86;77.08
75281;HTU21D;63874;47.230;39.620;2022-10-30T01:04:05;11.85;76.99
75281;HTU21D;63874;47.230;39.620;2022-10-30T01:06:35;11.85;76.95
75281;HTU21D;63874;47.230;39.620;2022-10-30T01:09:04;11.86;76.81
75281;HTU21D;63874;47.230;39.620;2022-10-30T01:11:30;11.82;76.86
75281;HTU21D;63874;47.230;39.620;2022-10-30T01:14:02;11.77;76.97
75281;HTU21D;63874;47.230;39.620;2022-10-30T01:19:50;11.68;77.19
75281;HTU21D;63874;47.230;39.620;2022-10-30T01:32:03;11.56;77.85
75281;HTU21D;63874;47.230;39.620;2022-10-30T01:39:49;11.55;78.06
75281;HTU21D;63874;47.230;39.620;2022-10-30T01:57:04;11.64;77.68
75281;HTU21D;63874;47.230;39.620;2022-10-30T01:59:51;11.64;77.61
75281;HTU21D;63874;47.230;39.620;2022-10-30T02:02:20;11.67;77.47
75281;HTU21D;63874;47.230;39.620;2022-10-30T02:04:46;11.70;77.28
75281;HTU21D;63874;47.230;39.620;2022-10-30T02:07:12;11.70;77.25
75281;HTU21D;63874;47.230;39.620;2022-10-30T02:09:43;11.72;77.13
75281;HTU21D;63874;47.230;39.620;2022-10-30T02:12:12;11.71;77.15
75281;HTU21D;63874;47.230;39.620;2022-10-30T02:14:42;11.72;77.15
75281;HTU21D;63874;47.230;39.620;2022-10-30T02:17:10;11.74;77.08
75281;HTU21D;63874;47.230;39.620;2022-10-30T02:19:37;11.76;77.05
75281;HTU21D;63874;47.230;39.620;2022-10-30T02:22:03;11.82;76.92
75281;HTU21D;63874;47.230;39.620;2022-10-30T02:24:30;11.79;76.95
75281;HTU21D;63874;47.230;39.620;2022-10-30T02:26:56;11.83;76.97
75281;HTU21D;63874;47.230;39.620;2022-10-30T02:29:22;11.86;76.95
75281;HTU21D;63874;47.230;39.620;2022-10-30T02:31:48;11.85;76.98
75281;HTU21D;63874;47.230;39.620;2022-10-30T02:34:15;11.81;77.11
75281;HTU21D;63874;47.230;39.620;2022-10-30T02:36:42;11.83;77.08
75281;HTU21D;63874;47.230;39.620;2022-10-30T02:39:08;11.82;77.22
75281;HTU21D;63874;47.230;39.620;2022-10-30T02:41:35;11.77;77.28
75281;HTU21D;63874;47.230;39.620;2022-10-30T02:44:01;11.75;77.43
75281;HTU21D;63874;47.230;39.620;2022-10-30T02:46:27;11.75;77.49
75281;HTU21D;63874;47.230;39.620;2022-10-30T02:48:53;11.75;77.56
75281;HTU21D;63874;47.230;39.620;2022-10-30T02:51:18;11.78;77.55
75281;HTU21D;63874;47.230;39.620;2022-10-30T02:53:44;11.82;77.48
75281;HTU21D;63874;47.230;39.620;2022-10-30T02:56:13;11.84;77.48
75281;HTU21D;63874;47.230;39.620;2022-10-30T02:58:40;11.87;77.42
75281;HTU21D;63874;47.230;39.620;2022-10-30T03:01:09;11.85;77.47
75281;HTU21D;63874;47.230;39.620;2022-10-30T03:03:35;11.86;77.53
75281;HTU21D;63874;47.230;39.620;2022-10-30T03:06:03;11.84;77.53
75281;HTU21D;63874;47.230;39.620;2022-10-30T03:08:30;11.83;77.63
75281;HTU21D;63874;47.230;39.620;2022-10-30T03:11:10;11.83;77.75
75281;HTU21D;63874;47.230;39.620;2022-10-30T03:13:37;11.85;77.68
75281;HTU21D;63874;47.230;39.620;2022-10-30T03:16:31;11.86;77.73
75281;HTU21D;63874;47.230;39.620;2022-10-30T03:18:58;11.87;77.63
75281;HTU21D;63874;47.230;39.620;2022-10-30T03:21:26;11.89;77.63
75281;HTU21D;63874;47.230;39.620;2022-10-30T03:23:53;11.90;77.59
75281;HTU21D;63874;47.230;39.620;2022-10-30T03:26:20;11.91;77.53
75281;HTU21D;63874;47.230;39.620;2022-10-30T03:28:53;11.92;77.49
75281;HTU21D;63874;47.230;39.620;2022-10-30T03:31:19;11.93;77.48
75281;HTU21D;63874;47.230;39.620;2022-10-30T03:33:51;11.93;77.53
75281;HTU21D;63874;47.230;39.620;2022-10-30T03:36:17;11.93;77.45
75281;HTU21D;63874;47.230;39.620;2022-10-30T03:38:43;11.94;77.47
75281;HTU21D;63874;47.230;39.620;2022-10-30T03:41:13;11.93;77.51
75281;HTU21D;63874;47.230;39.620;2022-10-30T03:43:39;11.90;77.50
75281;HTU21D;63874;47.230;39.620;2022-10-30T03:46:05;11.90;77.56
75281;HTU21D;63874;47.230;39.620;2022-10-30T03:48:31;11.85;77.73
75281;HTU21D;63874;47.230;39.620;2022-10-30T03:50:58;11.84;77.76
75281;HTU21D;63874;47.230;39.620;2022-10-30T03:53:27;11.81;77.90
75281;HTU21D;63874;47.230;39.620;2022-10-30T03:55:57;11.79;77.99
75281;HTU21D;63874;47.230;39.620;2022-10-30T03:58:24;11.78;78.05
75281;HTU21D;63874;47.230;39.620;2022-10-30T04:01:03;11.75;78.17
75281;HTU21D;63874;47.230;39.620;2022-10-30T04:03:32;11.77;78.23
75281;HTU21D;63874;47.230;39.620;2022-10-30T04:05:58;11.77;78.16
75281;HTU21D;63874;47.230;39.620;2022-10-30T04:08:24;11.81;78.14
75281;HTU21D;63874;47.230;39.620;2022-10-30T04:10:50;11.82;78.18
75281;HTU21D;63874;47.230;39.620;2022-10-30T04:13:17;11.82;78.28
75281;HTU21D;63874;47.230;39.620;2022-10-30T04:15:49;11.83;78.35
75281;HTU21D;63874;47.230;39.620;2022-10-30T04:18:15;11.83;78.33
75281;HTU21D;63874;47.230;39.620;2022-10-30T04:20:43;11.83;78.43
75281;HTU21D;63874;47.230;39.620;2022-10-30T04:23:15;11.86;78.40
75281;HTU21D;63874;47.230;39.620;2022-10-30T04:25:41;11.88;78.36
75281;HTU21D;63874;47.230;39.620;2022-10-30T04:28:07;11.89;78.34
75281;HTU21D;63874;47.230;39.620;2022-10-30T04:30:34;11.88;78.37
75281;HTU21D;63874;47.230;39.620;2022-10-30T04:33:04;11.86;78.45
75281;HTU21D;63874;47.230;39.620;2022-10-30T04:35:33;11.85;78.50
75281;HTU21D;63874;47.230;39.620;2022-10-30T04:38:21;11.83;78.61
75281;HTU21D;63874;47.230;39.620;2022-10-30T04:40:47;11.84;78.63
75281;HTU21D;63874;47.230;39.620;2022-10-30T04:43:14;11.83;78.57
75281;HTU21D;63874;47.230;39.620;2022-10-30T04:45:42;11.83;78.63
75281;HTU21D;63874;47.230;39.620;2022-10-30T04:48:15;11.82;78.69
75281;HTU21D;63874;47.230;39.620;2022-10-30T04:50:42;11.84;78.62
75281;HTU21D;63874;47.230;39.620;2022-10-30T04:53:16;11.86;78.61
75281;HTU21D;63874;47.230;39.620;2022-10-30T04:55:45;11.89;78.58
75281;HTU21D;63874;47.230;39.620;2022-10-30T04:58:12;11.92;78.53
75281;HTU21D;63874;47.230;39.620;2022-10-30T05:00:41;11.97;78.37
75281;HTU21D;63874;47.230;39.620;2022-10-30T05:03:21;12.02;78.25
75281;HTU21D;63874;47.230;39.620;2022-10-30T05:09:06;12.08;78.07
75281;HTU21D;63874;47.230;39.620;2022-10-30T05:11:37;12.11;78.01
75281;HTU21D;63874;47.230;39.620;2022-10-30T05:14:03;12.11;78.05
75281;HTU21D;63874;47.230;39.620;2022-10-30T05:16:30;12.11;78.08
75281;HTU21D;63874;47.230;39.620;2022-10-30T05:18:58;12.13;78.04
75281;HTU21D;63874;47.230;39.620;2022-10-30T05:21:24;12.14;78.02
75281;HTU21D;63874;47.230;39.620;2022-10-30T05:23:50;12.16;77.95
75281;HTU21D;63874;47.230;39.620;2022-10-30T05:26:16;12.16;78.00
75281;HTU21D;63874;47.230;39.620;2022-10-30T05:28:42;12.15;78.01
75281;HTU21D;63874;47.230;39.620;2022-10-30T05:31:08;12.17;78.01
75281;HTU21D;63874;47.230;39.620;2022-10-30T05:33:54;12.20;78.03
75281;HTU21D;63874;47.230;39.620;2022-10-30T05:36:22;12.23;77.98
75281;HTU21D;63874;47.230;39.620;2022-10-30T05:38:48;12.22;78.01
75281;HTU21D;63874;47.230;39.620;2022-10-30T05:41:24;12.26;77.89
75281;HTU21D;63874;47.230;39.620;2022-10-30T05:43:49;12.26;77.90
75281;HTU21D;63874;47.230;39.620;2022-10-30T05:46:16;12.27;77.84
75281;HTU21D;63874;47.230;39.620;2022-10-30T05:48:42;12.29;77.83
75281;HTU21D;63874;47.230;39.620;2022-10-30T05:51:08;12.30;77.88
75281;HTU21D;63874;47.230;39.620;2022-10-30T05:53:36;12.30;77.89
75281;HTU21D;63874;47.230;39.620;2022-10-30T05:56:04;12.26;78.02
75281;HTU21D;63874;47.230;39.620;2022-10-30T05:58:32;12.25;78.24
75281;HTU21D;63874;47.230;39.620;2022-10-30T06:01:05;12.21;78.40
75281;HTU21D;63874;47.230;39.620;2022-10-30T06:03:44;12.22;78.49
75281;HTU21D;63874;47.230;39.620;2022-10-30T06:06:11;12.19;78.61
75281;HTU21D;63874;47.230;39.620;2022-10-30T06:08:37;12.21;78.79
75281;HTU21D;63874;47.230;39.620;2022-10-30T06:11:22;12.15;79.03
75281;HTU21D;63874;47.230;39.620;2022-10-30T06:13:52;12.07;79.56
75281;HTU21D;63874;47.230;39.620;2022-10-30T06:16:25;11.96;80.36
75281;HTU21D;63874;47.230;39.620;2022-10-30T06:19:08;11.78;80.91
75281;HTU21D;63874;47.230;39.620;2022-10-30T06:21:33;11.67;81.81
75281;HTU21D;63874;47.230;39.620;2022-10-30T06:24:18;11.57;82.89
75281;HTU21D;63874;47.230;39.620;2022-10-30T06:27:16;11.41;83.35
75281;HTU21D;63874;47.230;39.620;2022-10-30T06:29:43;11.37;83.92
75281;HTU21D;63874;47.230;39.620;2022-10-30T06:32:09;11.34;84.39
75281;HTU21D;63874;47.230;39.620;2022-10-30T06:34:35;11.32;84.99
75281;HTU21D;63874;47.230;39.620;2022-10-30T06:37:01;11.31;85.14
75281;HTU21D;63874;47.230;39.620;2022-10-30T06:39:28;11.31;85.30
75281;HTU21D;63874;47.230;39.620;2022-10-30T06:42:17;11.27;85.62
75281;HTU21D;63874;47.230;39.620;2022-10-30T06:45:13;11.28;85.81
75281;HTU21D;63874;47.230;39.620;2022-10-30T06:47:40;11.29;86.12
75281;HTU21D;63874;47.230;39.620;2022-10-30T06:50:09;11.27;86.21
75281;HTU21D;63874;47.230;39.620;2022-10-30T06:52:36;11.29;86.25
75281;HTU21D;63874;47.230;39.620;2022-10-30T06:55:03;11.31;86.41
75281;HTU21D;63874;47.230;39.620;2022-10-30T06:57:58;11.30;86.47
75281;HTU21D;63874;47.230;39.620;2022-10-30T07:00:37;11.34;86.58
75281;HTU21D;63874;47.230;39.620;2022-10-30T07:03:38;11.34;86.78
75281;HTU21D;63874;47.230;39.620;2022-10-30T07:06:04;11.36;86.98
75281;HTU21D;63874;47.230;39.620;2022-10-30T07:08:31;11.38;87.06
75281;HTU21D;63874;47.230;39.620;2022-10-30T07:10:57;11.40;87.15
75281;HTU21D;63874;47.230;39.620;2022-10-30T07:13:34;11.45;87.12
75281;HTU21D;63874;47.230;39.620;2022-10-30T07:16:19;11.49;87.25
75281;HTU21D;63874;47.230;39.620;2022-10-30T07:18:47;11.49;87.17
75281;HTU21D;63874;47.230;39.620;2022-10-30T07:21:13;11.51;87.23
75281;HTU21D;63874;47.230;39.620;2022-10-30T07:23:40;11.55;87.23
75281;HTU21D;63874;47.230;39.620;2022-10-30T07:26:18;11.60;87.24
75281;HTU21D;63874;47.230;39.620;2022-10-30T07:28:45;11.61;87.19
75281;HTU21D;63874;47.230;39.620;2022-10-30T07:31:18;11.61;87.22
75281;HTU21D;63874;47.230;39.620;2022-10-30T07:33:47;11.62;87.36
75281;HTU21D;63874;47.230;39.620;2022-10-30T07:36:20;11.61;87.50
75281;HTU21D;63874;47.230;39.620;2022-10-30T07:39:02;11.60;87.64
75281;HTU21D;63874;47.230;39.620;2022-10-30T07:41:35;11.63;87.77
75281;HTU21D;63874;47.230;39.620;2022-10-30T07:44:34;11.64;87.98
75281;HTU21D;63874;47.230;39.620;2022-10-30T07:47:15;11.59;88.09
75281;HTU21D;63874;47.230;39.620;2022-10-30T07:50:05;11.59;88.25
75281;HTU21D;63874;47.230;39.620;2022-10-30T07:52:32;11.60;88.25
75281;HTU21D;63874;47.230;39.620;2022-10-30T07:54:59;11.63;88.27
75281;HTU21D;63874;47.230;39.620;2022-10-30T07:57:53;11.67;88.18
75281;HTU21D;63874;47.230;39.620;2022-10-30T08:00:38;11.67;88.20
75281;HTU21D;63874;47.230;39.620;2022-10-30T08:03:15;11.71;88.23
75281;HTU21D;63874;47.230;39.620;2022-10-30T08:05:49;11.73;88.38
75281;HTU21D;63874;47.230;39.620;2022-10-30T08:08:34;11.76;88.40
75281;HTU21D;63874;47.230;39.620;2022-10-30T08:11:15;11.79;88.35
75281;HTU21D;63874;47.230;39.620;2022-10-30T08:13:43;11.83;88.35
75281;HTU21D;63874;47.230;39.620;2022-10-30T08:16:09;11.88;88.25
75281;HTU21D;63874;47.230;39.620;2022-10-30T08:18:35;11.89;88.30
75281;HTU21D;63874;47.230;39.620;2022-10-30T08:21:01;11.93;88.16
75281;HTU21D;63874;47.230;39.620;2022-10-30T08:23:27;11.96;88.06
75281;HTU21D;63874;47.230;39.620;2022-10-30T08:25:57;11.99;88.03
75281;HTU21D;63874;47.230;39.620;2022-10-30T08:28:25;12.01;88.07
75281;HTU21D;63874;47.230;39.620;2022-10-30T08:30:51;12.04;88.01
75281;HTU21D;63874;47.230;39.620;2022-10-30T08:33:27;12.06;88.02
75281;HTU21D;63874;47.230;39.620;2022-10-30T08:36:11;12.07;87.93
75281;HTU21D;63874;47.230;39.620;2022-10-30T08:38:37;12.11;87.86
75281;HTU21D;63874;47.230;39.620;2022-10-30T08:41:22;12.11;87.92
75281;HTU21D;63874;47.230;39.620;2022-10-30T08:43:51;12.15;87.91
75281;HTU21D;63874;47.230;39.620;2022-10-30T08:46:17;12.15;87.98
75281;HTU21D;63874;47.230;39.620;2022-10-30T08:48:43;12.16;88.04
75281;HTU21D;63874;47.230;39.620;2022-10-30T08:51:08;12.15;88.16
75281;HTU21D;63874;47.230;39.620;2022-10-30T08:53:40;12.13;88.28
75281;HTU21D;63874;47.230;39.620;2022-10-30T08:56:11;12.12;88.44
75281;HTU21D;63874;47.230;39.620;2022-10-30T08:58:50;12.08;88.64
75281;HTU21D;63874;47.230;39.620;2022-10-30T09:01:17;12.08;88.73
75281;HTU21D;63874;47.230;39.620;2022-10-30T09:04:02;12.06;88.96
75281;HTU21D;63874;47.230;39.620;2022-10-30T09:06:46;12.05;89.12
75281;HTU21D;63874;47.230;39.620;2022-10-30T09:09:35;12.02;89.06
75281;HTU21D;63874;47.230;39.620;2022-10-30T09:12:03;12.01;89.12
75281;HTU21D;63874;47.230;39.620;2022-10-30T09:14:34;12.01;89.18
75281;HTU21D;63874;47.230;39.620;2022-10-30T09:17:00;11.99;89.04
75281;HTU21D;63874;47.230;39.620;2022-10-30T09:19:27;12.00;89.21
75281;HTU21D;63874;47.230;39.620;2022-10-30T09:21:56;12.03;89.25
75281;HTU21D;63874;47.230;39.620;2022-10-30T09:24:22;12.06;89.23
75281;HTU21D;63874;47.230;39.620;2022-10-30T09:26:48;12.10;89.18
75281;HTU21D;63874;47.230;39.620;2022-10-30T09:29:23;12.13;89.11
75281;HTU21D;63874;47.230;39.620;2022-10-30T09:32:05;12.15;89.15
75281;HTU21D;63874;47.230;39.620;2022-10-30T09:34:47;12.14;89.12
75281;HTU21D;63874;47.230;39.620;2022-10-30T09:37:17;12.13;89.25
75281;HTU21D;63874;47.230;39.620;2022-10-30T09:39:47;12.13;89.31
75281;HTU21D;63874;47.230;39.620;2022-10-30T09:42:41;12.15;89.35
75281;HTU21D;63874;47.230;39.620;2022-10-30T09:45:25;12.14;89.49
75281;HTU21D;63874;47.230;39.620;2022-10-30T09:51:02;12.15;89.79
75281;HTU21D;63874;47.230;39.620;2022-10-30T09:56:21;12.13;90.18
75281;HTU21D;63874;47.230;39.620;2022-10-30T09:59:30;12.17;90.30
75281;HTU21D;63874;47.230;39.620;2022-10-30T10:05:02;12.16;90.35
75281;HTU21D;63874;47.230;39.620;2022-10-30T10:08:00;12.18;90.59
75281;HTU21D;63874;47.230;39.620;2022-10-30T10:10:53;12.18;90.65
75281;HTU21D;63874;47.230;39.620;2022-10-30T10:16:17;12.22;90.70
75281;HTU21D;63874;47.230;39.620;2022-10-30T10:21:31;12.27;90.63
75281;HTU21D;63874;47.230;39.620;2022-10-30T10:24:01;12.30;90.65
75281;HTU21D;63874;47.230;39.620;2022-10-30T10:31:45;12.34;90.61
75281;HTU21D;63874;47.230;39.620;2022-10-30T10:36:59;12.37;90.73
75281;HTU21D;63874;47.230;39.620;2022-10-30T10:39:59;12.41;90.65
75281;HTU21D;63874;47.230;39.620;2022-10-30T10:42:51;12.44;90.57
75281;HTU21D;63874;47.230;39.620;2022-10-30T10:45:58;12.46;90.47
75281;HTU21D;63874;47.230;39.620;2022-10-30T10:48:57;12.46;90.47
75281;HTU21D;63874;47.230;39.620;2022-10-30T10:51:35;12.47;90.49
75281;HTU21D;63874;47.230;39.620;2022-10-30T10:54:24;12.50;90.38
75281;HTU21D;63874;47.230;39.620;2022-10-30T10:56:52;12.51;90.29
75281;HTU21D;63874;47.230;39.620;2022-10-30T10:59:26;12.52;90.22
75281;HTU21D;63874;47.230;39.620;2022-10-30T11:04:46;12.57;89.91
75281;HTU21D;63874;47.230;39.620;2022-10-30T11:07:21;12.56;89.84
75281;HTU21D;63874;47.230;39.620;2022-10-30T11:09:52;12.56;89.76
75281;HTU21D;63874;47.230;39.620;2022-10-30T11:12:24;12.57;89.68
75281;HTU21D;63874;47.230;39.620;2022-10-30T11:14:51;12.57;89.58
75281;HTU21D;63874;47.230;39.620;2022-10-30T11:17:35;12.58;89.49
75281;HTU21D;63874;47.230;39.620;2022-10-30T11:22:58;12.58;89.44
75281;HTU21D;63874;47.230;39.620;2022-10-30T11:25:25;12.57;89.41
75281;HTU21D;63874;47.230;39.620;2022-10-30T11:28:02;12.58;89.44
75281;HTU21D;63874;47.230;39.620;2022-10-30T11:30:29;12.59;89.44
75281;HTU21D;63874;47.230;39.620;2022-10-30T11:32:56;12.60;89.38
75281;HTU21D;63874;47.230;39.620;2022-10-30T11:35:24;12.61;89.40
75281;HTU21D;63874;47.230;39.620;2022-10-30T11:38:01;12.60;89.39
75281;HTU21D;63874;47.230;39.620;2022-10-30T11:40:36;12.62;89.29
75281;HTU21D;63874;47.230;39.620;2022-10-30T11:43:03;12.64;89.25
75281;HTU21D;63874;47.230;39.620;2022-10-30T11:45:40;12.63;89.25
75281;HTU21D;63874;47.230;39.620;2022-10-30T11:48:28;12.65;89.22
75281;HTU21D;63874;47.230;39.620;2022-10-30T11:50:58;12.64;89.21
75281;HTU21D;63874;47.230;39.620;2022-10-30T11:53:31;12.65;89.15
75281;HTU21D;63874;47.230;39.620;2022-10-30T11:56:03;12.64;89.26
75281;HTU21D;63874;47.230;39.620;2022-10-30T11:58:37;12.65;89.25
75281;HTU21D;63874;47.230;39.620;2022-10-30T12:01:14;12.62;89.18
75281;HTU21D;63874;47.230;39.620;2022-10-30T12:03:42;12.65;89.23
75281;HTU21D;63874;47.230;39.620;2022-10-30T12:11:27;12.62;89.36
75281;HTU21D;63874;47.230;39.620;2022-10-30T12:13:54;12.60;89.43
75281;HTU21D;63874;47.230;39.620;2022-10-30T12:16:20;12.61;89.45
75281;HTU21D;63874;47.230;39.620;2022-10-30T12:19:00;12.60;89.59
75281;HTU21D;63874;47.230;39.620;2022-10-30T12:21:29;12.61;89.70
75281;HTU21D;63874;47.230;39.620;2022-10-30T12:23:57;12.59;89.73
75281;HTU21D;63874;47.230;39.620;2022-10-30T12:26:26;12.57;89.89
75281;HTU21D;63874;47.230;39.620;2022-10-30T12:29:01;12.55;89.95
75281;HTU21D;63874;47.230;39.620;2022-10-30T12:31:34;12.56;90.00
75281;HTU21D;63874;47.230;39.620;2022-10-30T12:34:30;12.52;90.12
75281;HTU21D;63874;47.230;39.620;2022-10-30T12:37:04;12.50;90.19
75281;HTU21D;63874;47.230;39.620;2022-10-30T12:42:13;12.47;90.51
75281;HTU21D;63874;47.230;39.620;2022-10-30T12:48:16;12.40;90.73
75281;HTU21D;63874;47.230;39.620;2022-10-30T12:51:40;12.37;91.00
75281;HTU21D;63874;47.230;39.620;2022-10-30T12:53:47;12.41;91.02
75281;HTU21D;63874;47.230;39.620;2022-10-30T12:56:36;12.40;91.02
75281;HTU21D;63874;47.230;39.620;2022-10-30T13:04:41;12.40;91.00
75281;HTU21D;63874;47.230;39.620;2022-10-30T13:07:16;12.41;91.06
75281;HTU21D;63874;47.230;39.620;2022-10-30T13:09:49;12.40;91.15
75281;HTU21D;63874;47.230;39.620;2022-10-30T13:12:25;12.37;91.11
75281;HTU21D;63874;47.230;39.620;2022-10-30T13:14:57;12.38;91.15
75281;HTU21D;63874;47.230;39.620;2022-10-30T13:17:24;12.37;91.14
75281;HTU21D;63874;47.230;39.620;2022-10-30T13:19:50;12.38;91.10
75281;HTU21D;63874;47.230;39.620;2022-10-30T13:22:34;12.38;91.12
75281;HTU21D;63874;47.230;39.620;2022-10-30T13:25:26;12.40;91.09
75281;HTU21D;63874;47.230;39.620;2022-10-30T13:28:04;12.38;91.14
75281;HTU21D;63874;47.230;39.620;2022-10-30T13:30:39;12.37;91.15
75281;HTU21D;63874;47.230;39.620;2022-10-30T13:33:14;12.37;91.22
75281;HTU21D;63874;47.230;39.620;2022-10-30T13:36:07;12.38;91.30
75281;HTU21D;63874;47.230;39.620;2022-10-30T13:38:53;12.36;91.26
75281;HTU21D;63874;47.230;39.620;2022-10-30T13:52:18;12.34;91.41
75281;HTU21D;63874;47.230;39.620;2022-10-30T13:55:12;12.32;91.49
75281;HTU21D;63874;47.230;39.620;2022-10-30T14:06:47;12.32;91.54
75281;HTU21D;63874;47.230;39.620;2022-10-30T14:09:37;12.34;91.65
75281;HTU21D;63874;47.230;39.620;2022-10-30T14:20:46;12.26;91.85
75281;HTU21D;63874;47.230;39.620;2022-10-30T14:23:18;12.28;91.92
75281;HTU21D;63874;47.230;39.620;2022-10-30T14:28:31;12.32;91.88
75281;HTU21D;63874;47.230;39.620;2022-10-30T14:36:25;12.37;91.88
75281;HTU21D;63874;47.230;39.620;2022-10-30T14:42:04;12.38;91.88
75281;HTU21D;63874;47.230;39.620;2022-10-30T15:03:18;12.50;91.80
75281;HTU21D;63874;47.230;39.620;2022-10-30T15:05:56;12.51;91.80
75281;HTU21D;63874;47.230;39.620;2022-10-30T15:08:45;12.50;91.82
75281;HTU21D;63874;47.230;39.620;2022-10-30T15:13:48;12.55;91.80
75281;HTU21D;63874;47.230;39.620;2022-10-30T15:16:17;12.57;91.76
75281;HTU21D;63874;47.230;39.620;2022-10-30T15:18:56;12.56;91.77
75281;HTU21D;63874;47.230;39.620;2022-10-30T15:21:23;12.58;91.79
75281;HTU21D;63874;47.230;39.620;2022-10-30T15:23:56;12.58;91.78
75281;HTU21D;63874;47.230;39.620;2022-10-30T15:26:29;12.59;91.79
75281;HTU21D;63874;47.230;39.620;2022-10-30T15:28:58;12.60;91.79
75281;HTU21D;63874;47.230;39.620;2022-10-30T15:31:26;12.60;91.79
75281;HTU21D;63874;47.230;39.620;2022-10-30T15:33:53;12.59;91.76
75281;HTU21D;63874;47.230;39.620;2022-10-30T15:36:22;12.63;91.75
75281;HTU21D;63874;47.230;39.620;2022-10-30T15:44:09;12.59;91.76
75281;HTU21D;63874;47.230;39.620;2022-10-30T15:46:35;12.57;91.82
75281;HTU21D;63874;47.230;39.620;2022-10-30T15:49:01;12.60;91.89
75281;HTU21D;63874;47.230;39.620;2022-10-30T15:51:27;12.63;91.91
75281;HTU21D;63874;47.230;39.620;2022-10-30T15:53:58;12.64;91.89
75281;HTU21D;63874;47.230;39.620;2022-10-30T15:56:34;12.65;91.91
75281;HTU21D;63874;47.230;39.620;2022-10-30T15:59:05;12.66;91.90
75281;HTU21D;63874;47.230;39.620;2022-10-30T16:01:35;12.69;91.86
75281;HTU21D;63874;47.230;39.620;2022-10-30T16:04:16;12.70;91.82
75281;HTU21D;63874;47.230;39.620;2022-10-30T16:06:50;12.70;91.82
75281;HTU21D;63874;47.230;39.620;2022-10-30T16:09:17;12.71;91.82
75281;HTU21D;63874;47.230;39.620;2022-10-30T16:11:43;12.71;91.82
75281;HTU21D;63874;47.230;39.620;2022-10-30T16:14:16;12.74;91.78
75281;HTU21D;63874;47.230;39.620;2022-10-30T16:16:44;12.76;91.77
75281;HTU21D;63874;47.230;39.620;2022-10-30T16:19:21;12.76;91.73
75281;HTU21D;63874;47.230;39.620;2022-10-30T16:21:50;12.78;91.72
75281;HTU21D;63874;47.230;39.620;2022-10-30T16:24:16;12.79;91.68
75281;HTU21D;63874;47.230;39.620;2022-10-30T16:26:43;12.79;91.67
75281;HTU21D;63874;47.230;39.620;2022-10-30T16:31:40;12.84;91.60
75281;HTU21D;63874;47.230;39.620;2022-10-30T16:34:10;12.84;91.57
75281;HTU21D;63874;47.230;39.620;2022-10-30T16:36:39;12.86;91.59
75281;HTU21D;63874;47.230;39.620;2022-10-30T16:39:05;12.87;91.55
75281;HTU21D;63874;47.230;39.620;2022-10-30T16:41:33;12.88;91.54
75281;HTU21D;63874;47.230;39.620;2022-10-30T16:44:12;12.89;91.46
75281;HTU21D;63874;47.230;39.620;2022-10-30T16:46:51;12.89;91.43
75281;HTU21D;63874;47.230;39.620;2022-10-30T16:49:26;12.88;91.42
75281;HTU21D;63874;47.230;39.620;2022-10-30T16:51:57;12.90;91.35
75281;HTU21D;63874;47.230;39.620;2022-10-30T16:54:31;12.89;91.41
75281;HTU21D;63874;47.230;39.620;2022-10-30T16:56:59;12.86;91.35
75281;HTU21D;63874;47.230;39.620;2022-10-30T16:59:34;12.85;91.41
75281;HTU21D;63874;47.230;39.620;2022-10-30T17:02:12;12.84;91.51
75281;HTU21D;63874;47.230;39.620;2022-10-30T17:04:42;12.86;91.49
75281;HTU21D;63874;47.230;39.620;2022-10-30T17:07:17;12.86;91.43
75281;HTU21D;63874;47.230;39.620;2022-10-30T17:09:48;12.87;91.44
75281;HTU21D;63874;47.230;39.620;2022-10-30T17:12:17;12.89;91.38
75281;HTU21D;63874;47.230;39.620;2022-10-30T17:14:54;12.93;91.27
75281;HTU21D;63874;47.230;39.620;2022-10-30T17:17:29;12.93;91.22
75281;HTU21D;63874;47.230;39.620;2022-10-30T17:19:57;12.95;91.11
75281;HTU21D;63874;47.230;39.620;2022-10-30T17:22:25;12.97;91.05
75281;HTU21D;63874;47.230;39.620;2022-10-30T17:24:51;13.00;91.03
75281;HTU21D;63874;47.230;39.620;2022-10-30T17:27:37;13.00;90.99
75281;HTU21D;63874;47.230;39.620;2022-10-30T17:30:28;13.01;90.94
75281;HTU21D;63874;47.230;39.620;2022-10-30T17:32:56;13.03;90.92
75281;HTU21D;63874;47.230;39.620;2022-10-30T17:35:23;13.03;90.93
75281;HTU21D;63874;47.230;39.620;2022-10-30T17:37:49;13.05;90.87
75281;HTU21D;63874;47.230;39.620;2022-10-30T17:40:15;13.05;90.82
75281;HTU21D;63874;47.230;39.620;2022-10-30T17:42:44;13.05;90.80
75281;HTU21D;63874;47.230;39.620;2022-10-30T17:45:13;13.06;90.72
75281;HTU21D;63874;47.230;39.620;2022-10-30T17:47:39;13.08;90.66
75281;HTU21D;63874;47.230;39.620;2022-10-30T17:50:05;13.06;90.66
75281;HTU21D;63874;47.230;39.620;2022-10-30T17:52:32;13.08;90.65
75281;HTU21D;63874;47.230;39.620;2022-10-30T17:55:00;13.10;90.61
75281;HTU21D;63874;47.230;39.620;2022-10-30T17:57:26;13.09;90.55
75281;HTU21D;63874;47.230;39.620;2022-10-30T17:59:53;13.09;90.56
75281;HTU21D;63874;47.230;39.620;2022-10-30T18:02:21;13.08;90.60
75281;HTU21D;63874;47.230;39.620;2022-10-30T18:04:48;13.12;90.50